JP-0079 weather

Kagawa Prefectural Chuo Hospital Helipad
Asahimachi, Takamatsu-shi, Kagawa Prefecture, Japan

Public forecast

Using degrees Celsius for public forecast. Weather courtesy of forecast.io.

Closest aviation weather report (METAR) to Kagawa Prefectural Chuo Hospital Helipad

Closest report is Takamatsu Airport, 8.4 nm (15.6 km) SSW. Retrieved 2019/10/18 12:38 UTC (31 minutes ago):

RJOT 181238Z 08010KT 6000 VCSH BR FEW000 SCT002 BKN005 19/19 Q1016 RMK 1ST000 3ST002 5ST005 A3001

Closest aviation forecast (TAF) to Kagawa Prefectural Chuo Hospital Helipad

Closest forecast is Takamatsu Airport, 8.4 nm (15.6 km) SSW. Retrieved 2019/10/18 12:30 UTC (39 minutes ago):

TAF TAF RJOT 181109Z 1812/1918 14005KT 8000 -SHRA FEW005 SCT010 BKN020 TEMPO 1812/1815 2000 SHRA BR BCFG FEW000 SCT002 BKN005 BECMG 1819/1821 22006KT TEMPO 1821/1900 4000 SHRA BR BCFG FEW002 BKN008 BKN015